Hume, Illinois
Current Conditions -  °F | °C
As of 8:15 AM on Sunday 25 Jan 2015 (Local Time) from KPRG Reporting Station
Light Rain Light Rain  
Wind Chill: 36°   Ceiling: 4200
Heat Index: 36°   Visibility: 10mi
Dew Point: 34°   Wind: 0mph
Humidity: 93%   Direction: NA
Pressure: 29.64"   Gusts: NA
Location:  39.8°N, 87.87°W
Report Text: KPRG 251415Z AUTO 00000KT 10SM -RA BKN042 OVC048 02/01 A2964 RMK AO2 T00200010
Loading
Personal Weather Stations






























Interactive Weather Map New forecast layout! Learn more

10-Day Weather Forecast

Advertisements
Track Severe Weather on mobile